Time;durP1;ratioP1;P1;durP2;ratioP2;P2;SDS_P1;SDS_P2;PMS_P1;PMS_P2;Temp;Humidity;BMP_temperature;BMP_pressure;BME280_temperature;BME280_humidity;BME280_pressure;Samples;Min_cycle;Max_cycle;Signal;HPM_P1;HPM_P2
2021/11/20 00:01:19;;;;;;;;;19.25;17.00;;;;;10.28;74.95;102126.78;5014511;28;45299;-68
2021/11/20 00:03:46;;;;;;;;;16.75;16.25;;;;;10.32;74.96;102127.63;5014512;28;45282;-70
2021/11/20 00:06:22;;;;;;;;;20.25;18.00;;;;;10.34;74.78;102128.47;5016016;28;45574;-67
2021/11/20 00:08:48;;;;;;;;;22.25;19.00;;;;;10.35;74.83;102125.81;5016741;28;46189;-69
2021/11/20 00:11:18;;;;;;;;;16.00;16.00;;;;;10.34;75.04;102116.16;5015911;28;45408;-76
2021/11/20 00:13:45;;;;;;;;;15.00;15.00;;;;;10.37;75.22;102117.91;5014691;28;45405;-69
2021/11/20 00:16:12;;;;;;;;;18.00;15.25;;;;;10.40;74.71;102114.38;5058572;27;46055;-72
2021/11/20 00:18:39;;;;;;;;;20.50;17.50;;;;;10.37;75.22;102112.66;5120895;27;45594;-78
2021/11/20 00:21:10;;;;;;;;;20.00;17.50;;;;;10.38;75.24;102114.38;5124193;27;45371;-71
2021/11/20 00:23:41;;;;;;;;;24.00;21.25;;;;;10.39;74.87;102113.50;5151086;27;45377;-72
2021/11/20 00:26:09;;;;;;;;;20.50;16.50;;;;;10.40;75.19;102111.75;5120190;27;45419;-70
2021/11/20 00:31:30;;;;;;;;;14.75;13.75;;;;;10.40;75.61;102101.22;5119723;27;45359;-70
2021/11/20 00:33:56;;;;;;;;;17.00;14.00;;;;;10.36;75.19;102092.50;5119751;27;45279;-71
2021/11/20 00:36:22;;;;;;;;;16.75;15.75;;;;;10.32;75.68;102090.81;5119370;27;45418;-70
2021/11/20 00:38:50;;;;;;;;;19.00;18.25;;;;;10.25;75.34;102086.53;5119319;27;45437;-69
2021/11/20 00:41:22;;;;;;;;;19.50;16.50;;;;;10.34;75.51;102103.03;5118488;27;45405;-69
2021/11/20 00:43:49;;;;;;;;;18.25;15.75;;;;;10.36;75.61;102095.97;5117471;27;45441;-67
2021/11/20 00:46:17;;;;;;;;;16.25;14.75;;;;;10.37;75.73;102087.19;5117014;27;45437;-70
2021/11/20 00:48:45;;;;;;;;;17.75;16.00;;;;;10.38;75.72;102088.94;5118008;27;45350;-68
2021/11/20 00:51:15;;;;;;;;;15.25;13.50;;;;;10.43;76.29;102083.66;5118546;27;45256;-67
2021/11/20 00:53:40;;;;;;;;;16.25;14.50;;;;;10.43;76.12;102083.66;5118327;27;45396;-69
2021/11/20 00:56:08;;;;;;;;;19.25;16.50;;;;;10.44;75.89;102076.59;5151940;27;45637;-67
2021/11/20 00:58:34;;;;;;;;;23.75;22.75;;;;;10.45;76.24;102070.44;5118157;27;46022;-68
2021/11/20 01:01:03;;;;;;;;;15.25;13.00;;;;;10.31;75.87;102039.94;5151453;27;45558;-76
2021/11/20 01:03:29;;;;;;;;;25.50;22.00;;;;;10.47;76.34;102063.41;5119009;27;45435;-76
2021/11/20 01:05:56;;;;;;;;;16.50;16.00;;;;;10.50;76.43;102071.25;5118937;27;45464;-77
2021/11/20 01:08:25;;;;;;;;;15.50;14.50;;;;;10.51;76.18;102071.25;5118829;27;46327;-76
2021/11/20 01:10:56;;;;;;;;;14.25;13.50;;;;;10.50;75.97;102073.88;5119810;27;45613;-77
2021/11/20 01:13:24;;;;;;;;;13.00;11.75;;;;;10.47;75.63;102077.44;5120500;27;45317;-74
2021/11/20 01:15:56;;;;;;;;;21.75;18.75;;;;;10.45;76.37;102062.56;5120314;27;45305;-76
2021/11/20 01:18:23;;;;;;;;;17.25;14.75;;;;;10.47;75.69;102066.03;5118223;27;45491;-75
2021/11/20 01:20:50;;;;;;;;;17.00;14.75;;;;;10.42;76.09;102063.50;5118317;27;45444;-77
2021/11/20 01:23:18;;;;;;;;;14.25;13.75;;;;;10.36;76.09;102060.94;5118689;27;45286;-77
2021/11/20 01:25:44;;;;;;;;;17.50;16.00;;;;;10.33;75.63;102059.19;5119166;27;45488;-78
2021/11/20 01:28:10;;;;;;;;;21.50;17.25;;;;;10.31;76.17;102055.72;5120871;27;45381;-76
2021/11/20 01:30:36;;;;;;;;;22.00;16.25;;;;;10.22;76.26;102045.34;5120122;27;45386;-79
2021/11/20 01:33:01;;;;;;;;;22.75;19.50;;;;;10.27;76.41;102047.91;5120083;27;45318;-73
2021/11/20 01:35:27;;;;;;;;;20.50;17.00;;;;;10.22;76.53;102034.81;5121506;27;45304;-74
2021/11/20 01:37:53;;;;;;;;;17.50;15.50;;;;;10.30;76.96;102050.50;5121521;27;46235;-70
2021/11/20 01:40:22;;;;;;;;;20.00;17.00;;;;;10.33;76.81;102053.09;5118744;27;45369;-74
2021/11/20 01:42:48;;;;;;;;;23.50;19.75;;;;;10.29;76.66;102048.75;5118262;27;45296;-71
2021/11/20 01:45:25;;;;;;;;;19.25;15.00;;;;;10.28;76.87;102047.03;5118351;27;45556;-75
2021/11/20 01:48:17;;;;;;;;;25.50;17.25;;;;;10.23;76.57;102044.47;5117486;27;46108;-74
2021/11/20 01:51:02;;;;;;;;;21.25;16.75;;;;;10.23;76.82;102041.81;5116449;27;45389;-75
2021/11/20 01:53:40;;;;;;;;;26.25;20.25;;;;;10.25;76.48;102037.41;5116333;27;45427;-76
2021/11/20 01:56:14;;;;;;;;;20.50;18.25;;;;;10.30;77.36;102029.47;5118119;27;45427;-70
2021/11/20 01:59:05;;;;;;;;;24.00;20.25;;;;;10.33;76.89;102029.41;5117865;27;45478;-76
2021/11/20 02:01:43;;;;;;;;;26.00;22.25;;;;;10.34;77.65;102033.78;5125121;27;45327;-74
2021/11/20 02:04:20;;;;;;;;;26.00;21.00;;;;;10.32;77.48;102035.56;5122937;27;45408;-77
2021/11/20 02:07:03;;;;;;;;;28.50;25.50;;;;;10.33;77.53;102032.03;5117904;27;45313;-77
2021/11/20 02:09:53;;;;;;;;;22.50;20.25;;;;;10.34;77.61;102023.25;5116864;27;46200;-73
2021/11/20 02:12:25;;;;;;;;;24.50;23.00;;;;;10.34;76.93;102032.00;5117496;27;45432;-77
2021/11/20 02:14:50;;;;;;;;;21.25;18.00;;;;;10.30;77.31;102022.44;5116954;27;45456;-75
2021/11/20 02:17:21;;;;;;;;;27.00;24.25;;;;;10.21;77.11;102006.78;5117593;27;45335;-75
2021/11/20 02:19:50;;;;;;;;;23.50;18.75;;;;;10.29;77.75;102025.94;5117591;27;45703;-76
2021/11/20 02:22:30;;;;;;;;;23.50;20.75;;;;;10.30;77.30;102022.44;5117152;27;45318;-77
2021/11/20 02:24:55;;;;;;;;;25.75;22.75;;;;;10.31;76.98;102021.53;5117990;27;45479;-77
2021/11/20 02:27:21;;;;;;;;;22.25;21.25;;;;;10.28;77.00;102018.94;5117610;27;45293;-75
2021/11/20 02:29:46;;;;;;;;;22.75;19.75;;;;;10.23;76.83;102010.28;5118599;27;46347;-75
2021/11/20 02:32:18;;;;;;;;;24.75;21.25;;;;;10.21;77.24;102012.06;5119791;27;45335;-75
2021/11/20 02:34:46;;;;;;;;;23.50;20.50;;;;;10.19;77.22;102014.72;5120161;27;45338;-76
2021/11/20 02:37:11;;;;;;;;;41.75;33.25;;;;;10.06;77.51;101993.00;5119131;27;45514;-76
2021/11/20 02:39:38;;;;;;;;;28.00;21.75;;;;;10.08;77.12;101990.38;5120750;27;46336;-76
2021/11/20 02:42:07;;;;;;;;;22.00;20.25;;;;;10.14;77.38;101998.16;5117241;27;45419;-77
2021/11/20 02:44:34;;;;;;;;;27.00;22.75;;;;;10.09;77.04;101997.34;5118305;27;45359;-78
2021/11/20 02:47:04;;;;;;;;;21.75;19.00;;;;;10.08;77.32;102001.72;5119501;27;45595;-73
2021/11/20 02:49:30;;;;;;;;;23.25;20.75;;;;;10.08;77.79;101993.84;5122099;27;45444;-71
2021/11/20 02:52:00;;;;;;;;;21.00;19.75;;;;;10.11;77.30;102000.81;5122019;27;45256;-70
2021/11/20 02:54:27;;;;;;;;;20.25;19.50;;;;;10.13;77.11;101990.28;5121534;27;45352;-73
2021/11/20 02:56:57;;;;;;;;;25.50;23.00;;;;;10.07;77.38;101986.84;5120764;27;45216;-67
2021/11/20 02:59:24;;;;;;;;;21.50;18.00;;;;;10.11;77.48;101986.78;5121386;27;46161;-71
2021/11/20 03:01:52;;;;;;;;;19.00;18.00;;;;;10.12;77.18;101993.78;5121561;27;45252;-74
2021/11/20 03:04:20;;;;;;;;;23.25;21.00;;;;;10.09;77.55;101987.69;5122332;27;45291;-75
2021/11/20 03:06:48;;;;;;;;;25.00;22.00;;;;;10.11;78.04;101978.91;5122065;27;45349;-73
2021/11/20 03:09:15;;;;;;;;;22.75;20.50;;;;;10.11;77.41;101978.91;5121425;27;47127;-71
2021/11/20 03:11:42;;;;;;;;;25.75;19.50;;;;;10.06;77.59;101974.59;5121408;27;45344;-72
2021/11/20 03:14:14;;;;;;;;;18.50;17.25;;;;;10.05;77.25;101977.22;5122175;27;45416;-69
2021/11/20 03:16:42;;;;;;;;;19.00;16.25;;;;;10.03;76.81;101974.66;5117786;27;45260;-67
2021/11/20 03:19:08;;;;;;;;;17.25;14.50;;;;;10.03;76.79;101971.13;5128533;27;47014;-72
2021/11/20 03:21:35;;;;;;;;;16.75;15.00;;;;;9.99;76.69;101967.69;5120495;27;45466;-71
2021/11/20 03:24:04;;;;;;;;;16.00;12.25;;;;;9.98;76.83;101971.22;5120315;27;45428;-67
2021/11/20 03:26:29;;;;;;;;;17.00;13.25;;;;;9.94;76.70;101959.88;5120602;27;45511;-70
2021/11/20 03:28:55;;;;;;;;;12.50;11.50;;;;;9.90;76.52;101949.44;5120672;27;46016;-73
2021/11/20 03:31:20;;;;;;;;;14.50;11.50;;;;;9.90;76.25;101949.44;5120412;27;45368;-70
2021/11/20 03:33:46;;;;;;;;;11.00;10.00;;;;;9.90;76.00;101946.81;5121479;27;45304;-72
2021/11/20 03:36:13;;;;;;;;;15.50;10.75;;;;;9.89;76.37;101943.31;5119225;27;45245;-73
2021/11/20 03:38:38;;;;;;;;;18.00;15.00;;;;;9.88;76.49;101943.34;5120272;27;45263;-73
2021/11/20 03:41:04;;;;;;;;;14.75;13.25;;;;;9.88;76.30;101931.06;5120941;27;45378;-74
2021/11/20 03:43:31;;;;;;;;;14.25;10.75;;;;;9.86;76.60;101930.22;5121980;27;45463;-69
2021/11/20 03:45:57;;;;;;;;;10.50;10.00;;;;;9.85;76.39;101925.84;5126394;27;45243;-70
2021/11/20 03:48:22;;;;;;;;;14.00;10.00;;;;;9.80;76.20;101917.16;5124891;27;46829;-72
2021/11/20 03:50:49;;;;;;;;;10.25;9.75;;;;;9.84;76.30;101924.09;5122493;27;45535;-70
2021/11/20 03:53:14;;;;;;;;;12.25;12.25;;;;;9.86;76.56;101913.59;5120966;27;45404;-71
2021/11/20 03:55:45;;;;;;;;;12.00;10.25;;;;;9.86;76.58;101908.31;5119881;27;45316;-70
2021/11/20 03:58:12;;;;;;;;;12.50;10.75;;;;;9.84;76.37;101904.84;5118791;27;45476;-69
2021/11/20 04:01:00;;;;;;;;;13.75;10.75;;;;;9.67;76.24;101877.09;5119202;27;45355;-70
2021/11/20 04:03:26;;;;;;;;;8.50;8.00;;;;;9.79;76.05;101912.81;5119372;27;45180;-70
2021/11/20 04:05:54;;;;;;;;;7.00;7.00;;;;;9.77;76.33;101915.47;5120039;27;45562;-70
2021/11/20 04:08:20;;;;;;;;;9.25;8.00;;;;;9.74;76.51;101898.88;5119613;27;45918;-68
2021/11/20 04:10:48;;;;;;;;;8.25;6.75;;;;;9.74;76.39;101906.75;5119473;27;45539;-70
2021/11/20 04:13:15;;;;;;;;;9.75;7.25;;;;;9.65;76.52;101890.22;5120047;27;45446;-69
2021/11/20 04:15:42;;;;;;;;;9.00;7.00;;;;;9.73;76.43;101897.13;5119172;27;45252;-69
2021/11/20 04:18:07;;;;;;;;;13.00;12.50;;;;;9.64;75.83;101892.91;5152522;27;47240;-71
2021/11/20 04:20:33;;;;;;;;;8.25;8.25;;;;;9.60;76.20;101888.59;5119721;27;45222;-71
2021/11/20 04:22:59;;;;;;;;;7.50;7.50;;;;;9.50;76.13;101866.81;5119794;27;45328;-69
2021/11/20 04:25:25;;;;;;;;;8.25;6.50;;;;;9.55;76.07;101880.75;5120180;27;45429;-70
2021/11/20 04:27:51;;;;;;;;;7.75;5.00;;;;;9.53;76.41;101886.91;5120379;27;45302;-70
2021/11/20 04:30:17;;;;;;;;;5.00;5.00;;;;;9.51;76.26;101873.81;5119710;27;45395;-69
2021/11/20 04:32:44;;;;;;;;;18.00;14.75;;;;;9.49;76.09;101876.44;5119998;27;45545;-71
2021/11/20 04:35:12;;;;;;;;;6.25;6.25;;;;;9.48;76.24;101877.34;5119402;27;45607;-71
2021/11/20 04:37:38;;;;;;;;;7.50;6.00;;;;;9.39;76.38;101848.59;5118706;27;47091;-69
2021/11/20 04:40:05;;;;;;;;;6.00;6.00;;;;;9.48;76.57;101872.09;5118382;27;45433;-70
2021/11/20 04:42:30;;;;;;;;;10.50;6.50;;;;;9.47;76.52;101872.97;5118397;27;45395;-70
2021/11/20 04:44:55;;;;;;;;;4.25;4.25;;;;;9.48;76.34;101869.47;5118422;27;45288;-71
2021/11/20 04:47:21;;;;;;;;;5.00;5.00;;;;;9.44;76.52;101867.78;5118528;27;45316;-69
2021/11/20 04:49:46;;;;;;;;;4.25;4.25;;;;;9.45;76.54;101866.03;5118319;27;45400;-70
2021/11/20 04:52:13;;;;;;;;;4.50;3.25;;;;;9.40;76.37;101852.94;5118358;27;45639;-69
2021/11/20 04:54:39;;;;;;;;;5.00;5.00;;;;;9.40;76.63;101859.97;5152069;27;45594;-70
2021/11/20 04:57:06;;;;;;;;;4.25;4.25;;;;;9.38;76.33;101859.13;5118990;27;45311;-69
2021/11/20 04:59:32;;;;;;;;;3.25;3.00;;;;;9.29;76.41;101837.38;5124872;27;45196;-70
2021/11/20 05:01:58;;;;;;;;;6.00;4.50;;;;;9.33;76.39;101854.81;5122901;27;45434;-71
2021/11/20 05:04:24;;;;;;;;;4.25;3.75;;;;;9.34;76.98;101853.03;5120724;27;45255;-71
2021/11/20 05:06:49;;;;;;;;;6.25;5.00;;;;;9.38;76.70;101846.84;5117980;27;45717;-71
2021/11/20 05:09:14;;;;;;;;;5.00;5.00;;;;;9.40;76.69;101852.94;5117735;27;45357;-71
2021/11/20 05:11:40;;;;;;;;;6.25;5.00;;;;;9.39;76.57;101847.75;5117972;27;45411;-69
2021/11/20 05:14:05;;;;;;;;;4.50;3.25;;;;;9.40;76.72;101847.69;5119016;27;45558;-70
2021/11/20 05:16:31;;;;;;;;;4.00;4.00;;;;;9.42;76.70;101843.28;5118018;27;46712;-70
2021/11/20 05:18:57;;;;;;;;;6.50;6.00;;;;;9.43;77.04;101842.41;5117909;27;45310;-70
2021/11/20 05:21:25;;;;;;;;;6.00;4.75;;;;;9.41;76.72;101832.81;5118389;27;45351;-70
2021/11/20 05:23:52;;;;;;;;;9.50;8.75;;;;;9.42;76.62;101839.81;5118131;27;45542;-70
2021/11/20 05:26:18;;;;;;;;;5.75;5.75;;;;;9.28;76.84;101821.63;5121869;27;46374;-69
2021/11/20 05:28:50;;;;;;;;;9.00;9.00;;;;;9.40;77.00;101838.97;5121087;27;45261;-70
2021/11/20 05:31:17;;;;;;;;;10.00;8.75;;;;;9.41;76.99;101838.94;5117427;27;45477;-70
2021/11/20 05:33:47;;;;;;;;;9.00;9.00;;;;;9.39;77.15;101840.72;5117973;27;45472;-71
2021/11/20 05:36:14;;;;;;;;;10.50;7.50;;;;;9.41;77.32;101841.56;5117797;27;46217;-69
2021/11/20 05:38:40;;;;;;;;;5.25;5.00;;;;;9.44;77.15;101827.53;5118194;27;45368;-69
2021/11/20 05:41:07;;;;;;;;;5.00;4.75;;;;;9.43;76.34;101823.16;5118630;27;45558;-69
2021/11/20 05:43:32;;;;;;;;;2.00;2.00;;;;;9.44;76.63;101822.28;5118617;27;45362;-70
2021/11/20 05:46:03;;;;;;;;;8.00;5.00;;;;;9.43;76.84;101824.00;5117969;27;45411;-69
2021/11/20 05:48:28;;;;;;;;;4.00;4.00;;;;;9.38;76.59;101814.50;5151472;27;45403;-70
2021/11/20 05:50:54;;;;;;;;;4.50;4.50;;;;;9.42;76.90;101826.69;5151897;27;45721;-70
2021/11/20 05:53:23;;;;;;;;;5.25;5.00;;;;;9.42;76.51;101829.31;5118326;27;45385;-70
2021/11/20 05:55:51;;;;;;;;;4.75;4.00;;;;;9.40;76.64;101826.69;5119913;27;47154;-70
2021/11/20 05:58:17;;;;;;;;;8.75;8.75;;;;;9.38;76.39;101828.47;5120856;27;45290;-70
2021/11/20 06:00:49;;;;;;;;;5.75;5.00;;;;;9.34;76.18;101829.41;5118548;27;45443;-71
2021/11/20 06:03:17;;;;;;;;;6.50;4.75;;;;;9.30;76.10;101835.59;5120162;27;45440;-71
2021/11/20 06:05:45;;;;;;;;;7.25;5.00;;;;;9.22;76.48;101827.84;5117256;27;46241;-71
2021/11/20 06:08:11;;;;;;;;;8.25;5.25;;;;;9.15;76.90;101828.84;5118786;27;45234;-71
2021/11/20 06:10:39;;;;;;;;;9.00;6.25;;;;;9.10;76.92;101823.63;5117867;27;45345;-71
2021/11/20 06:13:07;;;;;;;;;7.50;5.25;;;;;9.06;77.03;101819.31;5117600;27;45445;-70
2021/11/20 06:15:32;;;;;;;;;6.00;6.00;;;;;9.11;77.23;101829.75;5116694;27;46202;-71
2021/11/20 06:17:58;;;;;;;;;11.00;8.50;;;;;9.10;77.28;101821.00;5117266;27;45415;-70
2021/11/20 06:20:23;;;;;;;;;12.50;7.00;;;;;9.14;77.67;101825.31;5116975;27;45308;-70
2021/11/20 06:22:48;;;;;;;;;7.75;6.50;;;;;9.19;77.45;101825.28;5116064;27;45543;-70
2021/11/20 06:25:14;;;;;;;;;9.00;8.00;;;;;9.17;77.36;101819.19;5117093;27;45437;-72
2021/11/20 06:27:40;;;;;;;;;13.50;9.75;;;;;9.14;77.29;101825.31;5116757;27;45389;-70
2021/11/20 06:30:09;;;;;;;;;11.50;11.50;;;;;9.11;77.71;101824.50;5119179;27;45471;-70
2021/11/20 06:32:36;;;;;;;;;9.00;9.00;;;;;9.11;78.10;101828.00;5118906;27;45531;-70
2021/11/20 06:35:02;;;;;;;;;7.75;7.00;;;;;9.14;77.90;101833.19;5116931;27;46377;-69
2021/11/20 06:37:28;;;;;;;;;7.50;7.25;;;;;9.16;77.90;101828.78;5117718;27;45404;-70
2021/11/20 06:39:53;;;;;;;;;6.00;6.00;;;;;9.16;77.77;101820.06;5118643;27;45331;-70
2021/11/20 06:42:18;;;;;;;;;7.75;7.75;;;;;9.20;77.75;101825.22;5126096;27;45294;-70
2021/11/20 06:44:44;;;;;;;;;9.00;6.00;;;;;9.22;77.79;101817.34;5123430;27;46039;-70
2021/11/20 06:47:09;;;;;;;;;9.00;7.00;;;;;9.19;77.83;101820.03;5117884;27;45393;-71
2021/11/20 06:49:35;;;;;;;;;9.50;9.00;;;;;9.24;77.75;101826.06;5117257;27;45335;-70
2021/11/20 06:52:01;;;;;;;;;10.50;9.00;;;;;9.21;77.88;101826.13;5116637;27;45336;-69
2021/11/20 06:54:26;;;;;;;;;9.75;8.25;;;;;9.15;77.75;101823.59;5117749;27;45328;-69
2021/11/20 06:56:53;;;;;;;;;9.00;9.00;;;;;9.14;78.19;101816.59;5119762;27;45325;-70
2021/11/20 07:01:51;;;;;;;;;11.00;9.25;;;;;9.12;78.64;101808.72;5116791;27;45341;-70
2021/11/20 07:04:25;;;;;;;;;10.75;10.00;;;;;9.14;78.30;101816.59;5116395;27;45471;-70
2021/11/20 07:06:54;;;;;;;;;11.25;9.00;;;;;9.15;78.73;101807.84;5118694;27;45388;-70
2021/11/20 07:09:20;;;;;;;;;8.00;8.00;;;;;9.18;77.94;101811.25;5123772;27;45360;-70
2021/11/20 07:11:46;;;;;;;;;11.50;9.00;;;;;9.09;77.83;101790.41;5117345;27;45460;-70
2021/11/20 07:14:12;;;;;;;;;9.50;8.50;;;;;9.16;77.88;101804.31;5117690;27;45407;-70
2021/11/20 07:16:37;;;;;;;;;15.50;12.00;;;;;9.15;78.22;101800.81;5124075;27;45338;-71
2021/11/20 07:19:04;;;;;;;;;13.00;10.00;;;;;9.15;78.05;101800.81;5122234;27;45529;-70
2021/11/20 07:21:29;;;;;;;;;13.75;10.25;;;;;9.12;77.85;101806.09;5119481;27;45603;-71
2021/11/20 07:23:57;;;;;;;;;14.00;9.75;;;;;9.14;78.36;101801.69;5116990;27;45647;-70
2021/11/20 07:26:24;;;;;;;;;13.75;11.50;;;;;8.91;78.22;101770.53;5116244;27;45358;-70
2021/11/20 07:28:51;;;;;;;;;13.25;11.25;;;;;9.11;78.32;101804.38;5116130;27;45378;-70
2021/11/20 07:31:17;;;;;;;;;15.00;13.25;;;;;9.15;78.50;101808.69;5116403;27;45415;-71
2021/11/20 07:33:42;;;;;;;;;18.00;12.50;;;;;9.18;78.44;101819.13;5117561;27;45346;-71
2021/11/20 07:36:10;;;;;;;;;18.25;15.50;;;;;9.15;78.60;101806.06;5119633;27;45385;-70
2021/11/20 07:38:39;;;;;;;;;14.50;11.25;;;;;9.22;78.47;101817.34;5118683;27;45300;-69
2021/11/20 07:41:06;;;;;;;;;21.00;17.50;;;;;9.23;78.50;101820.81;5119464;27;45472;-70
2021/11/20 07:43:32;;;;;;;;;13.25;11.00;;;;;9.21;78.40;101813.84;5120040;27;46259;-71
2021/11/20 07:45:57;;;;;;;;;14.50;9.25;;;;;9.20;78.21;101816.50;5120221;27;45607;-70
2021/11/20 07:48:25;;;;;;;;;12.00;10.75;;;;;9.21;78.30;101816.47;5123137;27;45407;-70
2021/11/20 07:50:53;;;;;;;;;9.50;8.00;;;;;9.25;78.79;101817.31;5119667;27;45279;-70
2021/11/20 07:53:19;;;;;;;;;25.00;22.75;;;;;9.18;78.83;101797.28;5118695;27;45397;-70
2021/11/20 07:55:46;;;;;;;;;15.00;12.75;;;;;9.29;79.08;101813.75;5119421;27;45478;-70
2021/11/20 07:58:13;;;;;;;;;14.50;10.75;;;;;9.39;79.07;101822.31;5120075;27;45391;-71
2021/11/20 08:00:40;;;;;;;;;11.75;10.25;;;;;9.40;78.41;101817.97;5152456;27;45410;-70
2021/11/20 08:03:06;;;;;;;;;14.25;12.75;;;;;9.40;78.38;101824.06;5152643;27;48291;-70
2021/11/20 08:05:32;;;;;;;;;13.25;11.50;;;;;9.45;78.64;101816.13;5119450;27;45372;-71
2021/11/20 08:07:58;;;;;;;;;11.50;10.25;;;;;9.53;78.12;101816.00;5119536;27;45149;-71
2021/11/20 08:10:26;;;;;;;;;17.00;11.50;;;;;9.56;78.23;101815.97;5120249;27;45449;-70
2021/11/20 08:12:55;;;;;;;;;13.75;12.75;;;;;9.58;78.31;101812.41;5118676;27;45551;-71
2021/11/20 08:15:21;;;;;;;;;14.75;12.00;;;;;9.61;78.00;101809.72;5119851;27;45225;-71
2021/11/20 08:17:47;;;;;;;;;15.00;12.00;;;;;9.55;78.07;101801.09;5119918;27;45374;-71
2021/11/20 08:20:16;;;;;;;;;11.50;11.50;;;;;9.65;77.62;101813.19;5120170;27;45350;-71
2021/11/20 08:22:44;;;;;;;;;12.75;10.75;;;;;9.63;77.59;101817.59;5120626;27;45405;-71
2021/11/20 08:25:14;;;;;;;;;12.75;9.50;;;;;9.67;77.17;101815.78;5123594;27;45407;-71
2021/11/20 08:27:40;;;;;;;;;8.00;8.00;;;;;9.66;77.50;101814.94;5121039;27;45399;-71
2021/11/20 08:30:09;;;;;;;;;13.50;10.75;;;;;9.63;76.96;101800.06;5119201;27;45401;-71
2021/11/20 08:32:35;;;;;;;;;18.50;11.00;;;;;9.67;76.74;101811.41;5120271;27;46570;-71
2021/11/20 08:35:00;;;;;;;;;11.75;10.25;;;;;9.63;76.62;101796.59;5118744;27;45279;-70
2021/11/20 08:37:27;;;;;;;;;8.75;8.00;;;;;9.66;76.65;101801.78;5120768;27;45349;-78
2021/11/20 08:39:55;;;;;;;;;14.25;13.00;;;;;9.69;76.63;101803.47;5118435;27;45200;-78
2021/11/20 08:42:21;;;;;;;;;9.00;8.25;;;;;9.70;76.65;101790.34;5119397;27;45600;-79
2021/11/20 08:44:46;;;;;;;;;8.75;8.00;;;;;9.70;76.52;101784.19;5120620;27;45629;-78
2021/11/20 08:47:12;;;;;;;;;10.00;9.75;;;;;9.75;76.58;101785.88;5120088;27;45409;-73
2021/11/20 08:49:38;;;;;;;;;13.50;12.75;;;;;9.76;76.41;101779.72;5124182;27;45344;-73
2021/11/20 08:52:04;;;;;;;;;14.75;12.00;;;;;9.74;76.19;101784.13;5123168;27;45435;-75
2021/11/20 08:54:30;;;;;;;;;11.50;9.75;;;;;9.70;76.56;101771.06;5118830;27;45256;-74
2021/11/20 08:56:57;;;;;;;;;14.00;12.00;;;;;9.80;76.38;101775.25;5118384;27;45257;-73
2021/11/20 08:59:25;;;;;;;;;16.25;11.25;;;;;9.82;75.92;101767.38;5120066;27;45562;-73
2021/11/20 09:02:04;;;;;;;;;14.25;13.00;;;;;9.83;76.19;101763.84;5119258;27;46395;-73
2021/11/20 09:04:42;;;;;;;;;14.25;10.75;;;;;9.86;75.72;101766.41;5119436;27;45396;-73
2021/11/20 09:07:35;;;;;;;;;11.25;10.00;;;;;9.86;75.45;101769.88;5118744;27;45364;-72
2021/11/20 09:10:05;;;;;;;;;11.75;11.00;;;;;9.86;75.42;101769.88;5118780;27;45737;-73
2021/11/20 09:12:53;;;;;;;;;15.75;12.75;;;;;9.90;75.53;101755.78;5118442;27;46240;-73
2021/11/20 09:15:22;;;;;;;;;15.00;13.25;;;;;9.98;74.69;101753.03;5112157;27;45412;-73
2021/11/20 09:17:49;;;;;;;;;13.75;11.25;;;;;10.05;75.06;101754.66;5117994;27;45335;-74
2021/11/20 09:20:18;;;;;;;;;12.75;11.25;;;;;10.11;74.67;101755.44;5118043;27;45507;-74
2021/11/20 09:22:44;;;;;;;;;12.00;8.00;;;;;10.15;74.25;101752.72;5117660;27;45478;-74
2021/11/20 09:25:13;;;;;;;;;14.50;11.00;;;;;10.07;74.07;101736.22;5117734;27;45317;-74
2021/11/20 09:27:39;;;;;;;;;10.25;10.00;;;;;10.15;73.78;101749.22;5117926;27;45239;-74
2021/11/20 09:30:11;;;;;;;;;9.25;9.00;;;;;10.18;73.81;101747.41;5118787;27;45252;-73
2021/11/20 09:32:37;;;;;;;;;12.75;12.25;;;;;10.19;73.94;101749.13;5117773;27;46168;-73
2021/11/20 09:35:04;;;;;;;;;11.25;8.75;;;;;10.14;73.52;101750.13;5117444;27;45380;-74
2021/11/20 09:37:29;;;;;;;;;21.25;18.00;;;;;10.12;74.07;101741.38;5119143;27;45248;-75
2021/11/20 09:39:55;;;;;;;;;14.75;13.00;;;;;10.11;74.25;101739.66;5118382;27;45472;-75
2021/11/20 09:42:27;;;;;;;;;17.75;14.25;;;;;10.16;74.16;101743.06;5116811;27;46039;-75
2021/11/20 09:44:57;;;;;;;;;16.00;14.00;;;;;10.17;74.72;101732.53;5117468;27;45360;-75
2021/11/20 09:47:56;;;;;;;;;21.25;16.75;;;;;10.18;74.17;101723.75;5124007;27;45329;-76
2021/11/20 09:50:30;;;;;;;;;25.00;21.00;;;;;10.21;73.93;101743.84;5104532;27;45306;-77
2021/11/20 09:52:57;;;;;;;;;42.00;32.75;;;;;10.22;73.98;101737.69;5118060;27;45598;-77
2021/11/20 09:55:32;;;;;;;;;23.75;20.00;;;;;10.19;73.79;101729.84;5118643;27;45213;-76
2021/11/20 09:58:24;;;;;;;;;32.25;27.50;;;;;10.26;74.62;101734.09;5150353;27;45642;-76
2021/11/20 10:00:52;;;;;;;;;41.25;34.75;;;;;10.25;74.41;101727.09;5118527;27;45354;-77
2021/11/20 10:03:29;;;;;;;;;35.25;31.75;;;;;10.28;75.07;101723.56;5119638;27;46504;-77
2021/11/20 10:06:13;;;;;;;;;17.75;16.00;;;;;10.42;74.57;101718.03;5122093;27;45263;-75
2021/11/20 10:08:43;;;;;;;;;36.75;33.50;;;;;10.47;74.63;101714.41;5120261;27;45282;-76
2021/11/20 10:11:08;;;;;;;;;35.00;31.00;;;;;10.57;74.23;101708.94;5118875;27;45279;-75
2021/11/20 10:13:47;;;;;;;;;24.25;20.50;;;;;10.61;73.09;101703.59;5117406;27;46245;-75
2021/11/20 10:16:21;;;;;;;;;27.25;23.25;;;;;10.59;72.61;101707.13;5117642;27;45356;-74
2021/11/20 10:19:05;;;;;;;;;26.50;25.75;;;;;10.54;73.22;101703.75;5117248;27;45288;-75
2021/11/20 10:21:33;;;;;;;;;26.25;24.00;;;;;10.48;72.54;101705.63;5116693;27;45892;-75
2021/11/20 10:24:16;;;;;;;;;29.50;29.50;;;;;10.43;72.95;101701.34;5118592;27;46247;-74
2021/11/20 10:27:09;;;;;;;;;16.00;14.75;;;;;10.46;72.25;101694.25;5118864;27;45296;-73
2021/11/20 10:30:12;;;;;;;;;21.75;15.50;;;;;10.32;72.53;101659.47;5119241;27;45336;-76
2021/11/20 10:32:53;;;;;;;;;17.50;16.00;;;;;10.61;72.34;101693.06;5122454;27;45471;-78
2021/11/20 10:35:41;;;;;;;;;14.00;13.00;;;;;10.66;71.93;101693.81;5118980;27;45392;-68
2021/11/20 10:38:19;;;;;;;;;15.00;12.75;;;;;10.68;71.73;101690.28;5117113;27;46462;-72
2021/11/20 10:41:30;;;;;;;;;14.75;13.00;;;;;10.65;71.45;101672.78;5117215;27;45315;-73
2021/11/20 10:44:19;;;;;;;;;15.75;15.25;;;;;10.69;71.10;101677.09;5109271;27;45498;-71
2021/11/20 10:47:26;;;;;;;;;17.25;14.25;;;;;10.75;71.18;101681.34;5117010;27;46141;-71
2021/11/20 10:50:26;;;;;;;;;19.00;16.75;;;;;10.80;70.69;101675.06;5117361;27;45197;-73
2021/11/20 10:53:14;;;;;;;;;17.75;17.25;;;;;10.79;70.54;101675.97;5118044;27;45385;-76
2021/11/20 10:55:44;;;;;;;;;21.50;16.25;;;;;10.75;71.14;101660.31;5097161;27;45334;-78
2021/11/20 10:58:32;;;;;;;;;25.50;20.25;;;;;10.78;70.83;101661.09;5121635;27;48475;-76
2021/11/20 11:01:24;;;;;;;;;20.00;19.50;;;;;10.80;70.11;101659.28;5120964;27;45439;-75
2021/11/20 11:03:55;;;;;;;;;35.25;28.75;;;;;10.76;71.07;101651.50;5096041;27;45289;-78
2021/11/20 11:06:46;;;;;;;;;19.25;16.25;;;;;10.47;71.00;101608.31;5121925;27;45230;-78
2021/11/20 11:09:30;;;;;;;;;23.50;20.50;;;;;10.67;70.55;101636.78;5121879;27;46696;-78
2021/11/20 11:12:11;;;;;;;;;27.50;22.25;;;;;10.65;70.71;101628.94;5122927;27;45369;-74
2021/11/20 11:15:05;;;;;;;;;35.50;30.50;;;;;10.72;71.47;101623.53;5121721;27;45326;-75
2021/11/20 11:18:06;;;;;;;;;30.00;26.75;;;;;10.73;71.16;101614.75;5123000;27;45526;-75
2021/11/20 11:20:37;;;;;;;;;24.75;24.50;;;;;10.68;71.07;101616.63;5123525;27;46492;-77
2021/11/20 11:23:21;;;;;;;;;23.75;20.50;;;;;10.69;71.39;101611.31;5124140;27;45937;-75
2021/11/20 11:26:08;;;;;;;;;36.00;30.00;;;;;10.69;71.13;101602.56;5120476;27;45309;-75
2021/11/20 11:28:38;;;;;;;;;23.00;18.50;;;;;10.65;71.05;101607.00;5121442;27;45347;-76
2021/11/20 11:31:25;;;;;;;;;22.25;20.50;;;;;10.63;71.52;101595.66;5112985;27;45676;-73
2021/11/20 11:34:00;;;;;;;;;36.75;30.00;;;;;10.68;71.10;101590.31;5012975;28;45584;-67
2021/11/20 11:36:49;;;;;;;;;25.75;21.75;;;;;10.59;71.07;101575.59;5016042;28;45241;-70